createdAt,value
2019-02-20T00:01:43.698Z,30.40
2019-02-20T00:04:12.082Z,30.75
2019-02-20T00:06:40.476Z,23.77
2019-02-20T00:09:08.928Z,28.85
2019-02-20T00:11:37.340Z,27.62
2019-02-20T00:14:05.792Z,28.55
2019-02-20T00:16:34.187Z,30.82
2019-02-20T00:19:02.567Z,29.02
2019-02-20T00:21:30.953Z,32.95
2019-02-20T00:23:59.339Z,28.55
2019-02-20T00:26:27.730Z,29.60
2019-02-20T00:28:56.419Z,31.48
2019-02-20T00:31:24.813Z,34.55
2019-02-20T00:33:53.268Z,29.92
2019-02-20T00:36:21.659Z,32.80
2019-02-20T00:38:50.037Z,39.50
2019-02-20T00:41:18.434Z,39.25
2019-02-20T00:43:48.444Z,37.65
2019-02-20T00:46:21.171Z,39.88
2019-02-20T00:48:51.200Z,37.08
2019-02-20T00:51:36.494Z,34.67
2019-02-20T00:54:06.748Z,33.15
2019-02-20T00:56:35.125Z,35.43
2019-02-20T00:59:03.511Z,37.67
2019-02-20T01:01:31.887Z,42.38
2019-02-20T01:04:00.859Z,35.98
2019-02-20T01:06:29.236Z,38.63
2019-02-20T01:08:57.632Z,38.33
2019-02-20T01:11:26.185Z,32.63
2019-02-20T01:13:54.577Z,33.78
2019-02-20T01:16:22.971Z,39.10
2019-02-20T01:18:51.351Z,31.12
2019-02-20T01:21:19.739Z,33.45
2019-02-20T01:23:48.435Z,28.52
2019-02-20T01:26:16.821Z,34.35
2019-02-20T01:28:45.203Z,31.12
2019-02-20T01:31:13.591Z,39.67
2019-02-20T01:33:42.368Z,34.03
2019-02-20T01:36:10.752Z,33.10
2019-02-20T01:38:39.151Z,28.35
2019-02-20T01:41:07.523Z,37.20
2019-02-20T01:43:35.921Z,31.48
2019-02-20T01:46:04.444Z,37.38
2019-02-20T01:48:32.835Z,31.35
2019-02-20T01:51:01.218Z,31.48
2019-02-20T01:53:29.679Z,33.78
2019-02-20T01:55:58.064Z,33.05
2019-02-20T01:58:26.465Z,36.08
2019-02-20T02:00:54.846Z,39.35
2019-02-20T02:03:23.234Z,38.25
2019-02-20T02:05:51.617Z,26.42
2019-02-20T02:08:20.010Z,33.10
2019-02-20T02:10:48.385Z,32.10
2019-02-20T02:13:16.783Z,28.65
2019-02-20T04:01:00.458Z,31.42
2019-02-20T04:03:28.846Z,61.50
2019-02-20T04:05:57.239Z,57.73
2019-02-20T04:08:25.635Z,61.73
2019-02-20T04:10:54.021Z,42.93
2019-02-20T04:13:22.477Z,45.17
2019-02-20T04:15:51.157Z,64.55
2019-02-20T04:18:19.553Z,71.02
2019-02-20T04:20:47.936Z,99.40
2019-02-20T04:23:16.331Z,69.42
2019-02-20T04:25:44.715Z,79.80
2019-02-20T04:28:13.092Z,90.35
2019-02-20T04:30:41.543Z,237.55
2019-02-20T04:33:09.979Z,174.38
2019-02-20T04:35:38.395Z,172.45
2019-02-20T04:38:06.783Z,102.65
2019-02-20T04:40:35.172Z,159.45
2019-02-20T04:43:03.564Z,64.77
2019-02-20T04:45:31.952Z,119.72
2019-02-20T04:48:00.340Z,92.12
2019-02-20T04:50:28.716Z,80.55
2019-02-20T04:52:57.107Z,44.35
2019-02-20T04:55:25.510Z,69.42
2019-02-20T04:58:16.190Z,96.15
2019-02-20T05:00:44.573Z,54.50
2019-02-20T05:03:12.969Z,60.70
2019-02-20T05:05:41.487Z,58.03
2019-02-20T05:08:09.868Z,62.48
2019-02-20T05:10:38.253Z,62.90
2019-02-20T05:13:06.639Z,59.53
2019-02-20T05:15:35.028Z,69.22
2019-02-20T05:18:03.412Z,55.98
2019-02-20T05:20:31.789Z,47.93
2019-02-20T05:23:00.172Z,41.70
2019-02-20T05:25:28.569Z,52.80
2019-02-20T05:27:56.956Z,49.45
2019-02-20T05:30:25.344Z,45.98
2019-02-20T05:32:53.723Z,33.53
2019-02-20T05:35:22.113Z,45.30
2019-02-20T05:37:50.502Z,43.95
2019-02-20T05:40:18.894Z,42.00
2019-02-20T05:42:48.371Z,44.23
2019-02-20T05:45:16.954Z,45.58
2019-02-20T05:47:45.331Z,55.00
2019-02-20T05:50:13.717Z,52.93
2019-02-20T05:52:42.092Z,51.15
2019-02-20T05:55:10.556Z,57.25
2019-02-20T05:57:38.937Z,56.68
2019-02-20T06:00:10.680Z,54.10
2019-02-20T06:02:39.045Z,83.03
2019-02-20T06:05:07.591Z,58.17
2019-02-20T06:07:36.027Z,85.77
2019-02-20T06:10:06.252Z,84.97
2019-02-20T06:12:34.640Z,110.25
2019-02-20T06:15:03.102Z,63.30
2019-02-20T06:17:31.471Z,95.20
2019-02-20T06:20:00.306Z,68.35
2019-02-20T06:22:28.732Z,87.92
2019-02-20T06:24:57.205Z,77.27
2019-02-20T06:27:25.583Z,100.25
2019-02-20T06:29:53.981Z,98.12
2019-02-20T06:32:24.068Z,55.12
2019-02-20T06:34:52.477Z,82.02
2019-02-20T06:37:20.860Z,72.85
2019-02-20T06:39:49.261Z,91.25
2019-02-20T06:42:17.721Z,125.38
2019-02-20T06:44:46.111Z,87.50
2019-02-20T06:47:14.506Z,181.63
2019-02-20T06:49:42.894Z,163.90
2019-02-20T06:52:11.582Z,118.65
2019-02-20T06:54:39.983Z,155.50
2019-02-20T06:57:08.361Z,90.85
2019-02-20T06:59:36.739Z,60.17
2019-02-20T07:02:05.212Z,67.35
2019-02-20T07:04:33.591Z,57.45
2019-02-20T07:07:22.927Z,47.48
2019-02-20T07:10:16.740Z,45.08
2019-02-20T07:12:48.491Z,43.95
2019-02-20T07:15:25.796Z,42.15
2019-02-20T07:18:00.149Z,41.83
2019-02-20T07:20:58.767Z,43.55
2019-02-20T07:23:34.163Z,42.53
2019-02-20T07:26:17.627Z,36.45
2019-02-20T07:29:11.928Z,46.00
2019-02-20T07:31:40.329Z,40.00
2019-02-20T07:34:08.714Z,39.23
2019-02-20T07:36:37.103Z,44.25
2019-02-20T07:39:06.191Z,37.10
2019-02-20T07:41:34.583Z,36.70
2019-02-20T07:44:03.052Z,35.75
2019-02-20T07:46:31.436Z,32.25
2019-02-20T07:48:59.813Z,31.15
2019-02-20T07:51:28.241Z,25.62
2019-02-20T07:53:56.992Z,33.30
2019-02-20T07:56:25.383Z,30.27
2019-02-20T07:58:53.773Z,34.00
2019-02-20T08:01:22.159Z,31.97
2019-02-20T08:03:50.532Z,24.95
2019-02-20T08:06:18.921Z,26.87
2019-02-20T08:08:47.324Z,23.35
2019-02-20T08:11:15.697Z,27.87
2019-02-20T08:13:44.087Z,26.40
2019-02-20T08:16:12.468Z,20.48
2019-02-20T08:18:40.867Z,23.73
2019-02-20T08:21:09.255Z,23.25
2019-02-20T08:23:37.968Z,24.47
2019-02-20T08:26:06.346Z,28.67
2019-02-20T08:28:34.735Z,25.17
2019-02-20T08:31:03.120Z,24.65
2019-02-20T08:33:31.514Z,24.75
2019-02-20T08:35:59.899Z,24.30
2019-02-20T08:38:28.287Z,28.23
2019-02-20T08:40:56.670Z,21.95
2019-02-20T08:43:25.067Z,24.87
2019-02-20T08:45:53.795Z,20.95
2019-02-20T08:48:22.191Z,22.60
2019-02-20T08:50:50.580Z,21.30
2019-02-20T08:53:19.056Z,20.85
2019-02-20T08:55:47.489Z,21.25
2019-02-20T08:58:15.955Z,20.02
2019-02-20T09:00:44.359Z,19.55
2019-02-20T09:03:12.748Z,20.25
2019-02-20T09:05:41.139Z,18.80
2019-02-20T09:08:09.532Z,19.48
2019-02-20T09:10:37.925Z,18.87
2019-02-20T09:13:06.323Z,19.32
2019-02-20T09:15:34.979Z,21.23
2019-02-20T09:18:03.460Z,22.05
2019-02-20T09:20:31.835Z,21.30
2019-02-20T09:23:00.240Z,17.05
2019-02-20T09:25:28.632Z,21.30
2019-02-20T09:27:57.021Z,18.80
2019-02-20T09:30:28.493Z,21.65
2019-02-20T09:32:55.531Z,20.95
2019-02-20T09:35:23.948Z,19.80
2019-02-20T09:37:52.648Z,21.85
2019-02-20T09:40:21.065Z,22.15
2019-02-20T09:42:51.587Z,20.37
2019-02-20T09:47:47.832Z,20.95
2019-02-20T09:50:16.237Z,18.92
2019-02-20T09:52:51.986Z,19.27
2019-02-20T09:55:14.819Z,22.22
2019-02-20T09:57:43.225Z,21.20
2019-02-20T10:00:16.484Z,22.13
2019-02-20T10:02:44.865Z,24.98
2019-02-20T10:05:13.403Z,21.15
2019-02-20T10:07:41.822Z,17.82
2019-02-20T10:10:11.440Z,22.55
2019-02-20T10:12:39.827Z,21.80
2019-02-20T10:15:14.366Z,20.43
2019-02-20T10:17:42.753Z,20.68
2019-02-20T10:20:11.591Z,20.37
2019-02-20T10:22:40.051Z,19.73
2019-02-20T10:25:12.797Z,21.12
2019-02-20T10:27:41.259Z,18.17
2019-02-20T10:30:15.188Z,20.00
2019-02-20T10:32:43.583Z,18.98
2019-02-20T10:35:12.143Z,24.23
2019-02-20T10:37:40.537Z,19.95
2019-02-20T10:40:10.277Z,18.75
2019-02-20T10:42:38.663Z,22.25
2019-02-20T10:45:12.607Z,19.05
2019-02-20T10:47:40.987Z,23.22
2019-02-20T10:50:13.763Z,23.25
2019-02-20T10:52:42.459Z,23.85
2019-02-20T10:55:11.187Z,21.45
2019-02-20T10:57:39.651Z,20.17
2019-02-20T11:00:23.618Z,21.25
2019-02-20T11:02:44.887Z,22.45
2019-02-20T11:05:13.618Z,21.02
2019-02-20T11:07:42.083Z,20.40
2019-02-20T11:10:10.557Z,20.85
2019-02-20T11:12:38.952Z,19.07
2019-02-20T11:15:08.077Z,18.35
2019-02-20T11:17:37.195Z,23.20
2019-02-20T11:20:09.184Z,18.35
2019-02-20T11:22:37.583Z,19.98
2019-02-20T11:25:09.120Z,18.27
2019-02-20T11:27:39.448Z,18.40
2019-02-20T11:32:37.268Z,20.88
2019-02-20T11:35:07.188Z,20.55
2019-02-20T11:37:35.589Z,17.10
2019-02-20T11:40:05.325Z,18.70
2019-02-20T11:42:33.721Z,20.82
2019-02-20T11:45:02.115Z,17.80
2019-02-20T11:47:30.509Z,15.28
2019-02-20T11:49:58.891Z,15.95
2019-02-20T11:52:27.359Z,13.93
2019-02-20T11:54:57.149Z,15.32
2019-02-20T11:57:25.752Z,15.20
2019-02-20T11:59:54.131Z,19.17
2019-02-20T12:02:22.819Z,16.05
2019-02-20T12:04:51.204Z,16.50
2019-02-20T12:07:19.641Z,20.95
2019-02-20T12:09:48.032Z,16.40
2019-02-20T12:12:16.428Z,19.90
2019-02-20T12:14:44.815Z,16.23
2019-02-20T12:17:13.212Z,18.07
2019-02-20T12:19:41.609Z,15.35
2019-02-20T12:22:10.071Z,15.80
2019-02-20T12:24:38.460Z,16.07
2019-02-20T12:27:06.850Z,15.83
2019-02-20T12:29:35.236Z,18.10
2019-02-20T12:32:03.623Z,12.60
2019-02-20T12:34:32.022Z,12.53
2019-02-20T12:37:00.404Z,10.93
2019-02-20T12:39:28.819Z,13.45
2019-02-20T12:41:57.194Z,10.03
2019-02-20T12:44:25.892Z,12.55
2019-02-20T12:46:54.277Z,19.55
2019-02-20T12:49:22.741Z,15.05
2019-02-20T12:51:51.128Z,14.50
2019-02-20T12:54:19.518Z,17.20
2019-02-20T12:56:47.897Z,16.35
2019-02-20T12:59:16.299Z,15.20
2019-02-20T13:01:44.681Z,15.78
2019-02-20T13:04:13.080Z,14.50
2019-02-20T13:06:41.457Z,16.15
2019-02-20T13:09:11.556Z,16.10
2019-02-20T13:11:39.952Z,17.60
2019-02-20T13:14:08.609Z,17.92
2019-02-20T13:16:36.987Z,14.23
2019-02-20T13:19:05.386Z,15.72
2019-02-20T13:21:33.776Z,14.95
2019-02-20T13:24:02.181Z,14.87
2019-02-20T13:26:30.563Z,13.38
2019-02-20T13:28:58.955Z,14.38
2019-02-20T13:31:27.342Z,16.42
2019-02-20T13:33:55.743Z,14.10
2019-02-20T13:36:24.125Z,14.50
2019-02-20T13:38:52.526Z,16.12
2019-02-20T13:41:21.300Z,15.03
2019-02-20T13:43:49.700Z,12.07
2019-02-20T13:46:18.144Z,12.58
2019-02-20T13:48:46.532Z,11.20
2019-02-20T13:51:14.920Z,12.82
2019-02-20T13:53:46.462Z,14.38
2019-02-20T13:56:13.432Z,14.15
2019-02-20T13:58:41.832Z,15.13
2019-02-20T14:01:10.239Z,12.00
2019-02-20T14:03:38.625Z,13.90
2019-02-20T14:06:07.083Z,14.87
2019-02-20T14:08:35.468Z,15.43
2019-02-20T14:11:03.938Z,13.35
2019-02-20T14:13:32.325Z,13.62
2019-02-20T14:16:00.976Z,13.15
2019-02-20T14:18:29.369Z,13.90
2019-02-20T14:20:57.833Z,12.98
2019-02-20T14:23:26.220Z,12.70
2019-02-20T14:25:54.635Z,16.12
2019-02-20T14:28:23.396Z,13.30
2019-02-20T14:30:51.796Z,12.37
2019-02-20T14:33:20.180Z,13.50
2019-02-20T14:35:48.839Z,11.45
2019-02-20T14:38:17.228Z,12.68
2019-02-20T14:40:45.623Z,13.65
2019-02-20T14:43:14.004Z,11.83
2019-02-20T14:45:42.775Z,20.95
2019-02-20T14:48:11.156Z,17.67
2019-02-20T14:50:39.549Z,13.80
2019-02-20T14:53:08.001Z,11.63
2019-02-20T14:55:36.404Z,11.50
2019-02-20T14:58:04.784Z,11.10
2019-02-20T15:00:33.247Z,13.13
2019-02-20T15:03:02.008Z,13.85
2019-02-20T15:05:30.571Z,16.57
2019-02-20T15:07:59.076Z,10.82
2019-02-20T15:10:27.490Z,12.60
2019-02-20T15:12:55.859Z,13.70
2019-02-20T15:15:24.271Z,10.60
2019-02-20T15:17:52.659Z,10.58
2019-02-20T15:20:21.040Z,10.00
2019-02-20T15:22:49.439Z,10.72
2019-02-20T15:25:17.821Z,10.25
2019-02-20T15:27:46.239Z,7.53
2019-02-20T15:30:17.551Z,9.15
2019-02-20T15:32:45.959Z,14.25
2019-02-20T15:35:14.722Z,10.90
2019-02-20T15:37:43.109Z,13.18
2019-02-20T15:40:11.498Z,11.28
2019-02-20T15:42:39.890Z,9.68
2019-02-20T15:45:10.010Z,10.88
2019-02-20T15:47:38.474Z,11.15
2019-02-20T15:50:09.966Z,13.35
2019-02-20T15:52:39.730Z,8.58
2019-02-20T15:55:11.399Z,12.25
2019-02-20T15:57:39.924Z,11.20
2019-02-20T16:00:11.383Z,9.80
2019-02-20T16:02:39.785Z,10.75
2019-02-20T16:05:08.304Z,9.85
2019-02-20T16:07:36.698Z,9.00
2019-02-20T16:10:07.385Z,11.43
2019-02-20T16:12:35.853Z,12.68
2019-02-20T16:15:05.484Z,11.83
2019-02-20T16:17:33.878Z,13.18
2019-02-20T16:20:02.328Z,9.90
2019-02-20T16:22:31.174Z,17.40
2019-02-20T16:24:59.549Z,10.15
2019-02-20T16:27:27.944Z,12.53
2019-02-20T16:29:56.320Z,11.05
2019-02-20T16:32:24.712Z,12.00
2019-02-20T16:34:53.083Z,9.40
2019-02-20T16:37:21.777Z,13.20
2019-02-20T16:39:50.536Z,9.58
2019-02-20T16:42:18.927Z,10.70
2019-02-20T16:44:47.308Z,12.60
2019-02-20T16:47:15.716Z,11.12
2019-02-20T16:49:44.108Z,11.18
2019-02-20T16:52:12.503Z,18.05
2019-02-20T16:54:40.890Z,16.50
2019-02-20T16:57:10.076Z,16.12
2019-02-20T16:59:38.523Z,14.35
2019-02-20T17:02:08.060Z,26.48
2019-02-20T17:04:36.440Z,21.77
2019-02-20T17:07:04.833Z,12.20
2019-02-20T17:09:34.339Z,17.75
2019-02-20T17:12:03.319Z,12.03
2019-02-20T17:14:31.732Z,13.80
2019-02-20T17:17:00.111Z,14.63
2019-02-20T17:19:28.516Z,12.07
2019-02-20T17:21:56.891Z,9.58
2019-02-20T17:24:25.284Z,13.05
2019-02-20T17:26:53.677Z,14.70
2019-02-20T17:29:22.349Z,14.45
2019-02-20T17:31:50.722Z,11.80
2019-02-20T17:34:19.121Z,14.00
2019-02-20T17:36:47.503Z,17.62
2019-02-20T17:39:15.967Z,14.15
2019-02-20T17:41:44.349Z,15.05
2019-02-20T17:44:12.749Z,15.70
2019-02-20T17:46:41.135Z,23.55
2019-02-20T17:49:09.537Z,32.48
2019-02-20T17:51:37.933Z,28.10
2019-02-20T17:54:06.322Z,26.33
2019-02-20T17:56:34.704Z,19.52
2019-02-20T17:59:04.574Z,18.07
2019-02-20T18:01:32.955Z,20.08
2019-02-20T18:04:01.379Z,18.35
2019-02-20T18:06:29.765Z,15.80
2019-02-20T18:08:58.209Z,19.77
2019-02-20T18:11:26.575Z,15.20
2019-02-20T18:13:54.963Z,15.25
2019-02-20T18:16:23.354Z,13.30
2019-02-20T18:18:51.751Z,15.40
2019-02-20T18:21:20.136Z,10.18
2019-02-20T18:23:48.528Z,12.65
2019-02-20T18:26:16.948Z,16.52
2019-02-20T18:28:45.340Z,16.25
2019-02-20T18:31:13.753Z,15.48
2019-02-20T18:33:42.137Z,19.20
2019-02-20T18:36:11.592Z,17.50
2019-02-20T18:38:40.195Z,19.87
2019-02-20T18:41:08.728Z,15.20
2019-02-20T18:43:37.133Z,16.90
2019-02-20T18:46:05.701Z,19.60
2019-02-20T18:48:34.084Z,20.65
2019-02-20T18:51:02.490Z,17.65
2019-02-20T18:53:31.137Z,19.17
2019-02-20T18:55:59.535Z,18.50
2019-02-20T18:58:33.907Z,19.35
2019-02-20T19:00:58.139Z,18.85
2019-02-20T19:03:26.516Z,18.17
2019-02-20T19:05:54.911Z,16.00
2019-02-20T19:08:34.836Z,18.80
2019-02-20T19:11:08.781Z,18.87
2019-02-20T19:14:01.134Z,17.27
2019-02-20T19:16:49.024Z,17.37
2019-02-20T19:19:32.632Z,20.32
2019-02-20T19:22:27.879Z,19.32
2019-02-20T19:25:27.835Z,20.00
2019-02-20T19:28:01.821Z,15.75
2019-02-20T19:30:47.948Z,19.27
2019-02-20T19:33:34.180Z,19.10
2019-02-20T19:36:29.463Z,16.30
2019-02-20T19:39:35.499Z,19.62
2019-02-20T19:42:21.729Z,15.98
2019-02-20T19:45:15.363Z,20.12
2019-02-20T19:48:07.760Z,18.77
2019-02-20T19:50:47.593Z,17.90
2019-02-20T19:53:28.042Z,20.20
2019-02-20T19:56:17.630Z,19.15
2019-02-20T19:59:08.536Z,19.50
2019-02-20T20:01:48.464Z,22.55
2019-02-20T20:04:31.448Z,24.63
2019-02-20T20:07:19.600Z,18.77
2019-02-20T20:10:05.692Z,19.73
2019-02-20T20:13:01.076Z,21.68
2019-02-20T20:15:37.763Z,21.12
2019-02-20T20:18:27.140Z,20.75
2019-02-20T20:21:04.141Z,21.37
2019-02-20T20:23:44.103Z,23.42
2019-02-20T20:26:30.286Z,20.65
2019-02-20T20:29:06.245Z,21.05
2019-02-20T20:31:43.506Z,17.25
2019-02-20T20:34:17.538Z,22.13
2019-02-20T20:36:57.850Z,18.70
2019-02-20T20:39:36.491Z,20.25
2019-02-20T20:42:10.971Z,25.55
2019-02-20T20:44:42.424Z,27.07
2019-02-20T20:47:19.517Z,22.30
2019-02-20T20:50:14.456Z,17.32
2019-02-20T20:52:45.921Z,20.25
2019-02-20T20:55:43.016Z,29.92
2019-02-20T20:58:35.661Z,25.17
2019-02-20T21:01:07.124Z,27.52
2019-02-20T21:03:47.360Z,28.67
2019-02-20T21:06:36.227Z,29.30
2019-02-20T21:09:07.711Z,24.30
2019-02-20T21:11:55.777Z,30.82
2019-02-20T21:14:35.530Z,26.87
2019-02-20T21:17:12.966Z,27.70
2019-02-20T21:19:50.716Z,23.90
2019-02-20T21:22:37.301Z,22.80
2019-02-20T21:25:26.910Z,28.95
2019-02-20T21:28:14.689Z,31.73
2019-02-20T21:30:51.824Z,27.13
2019-02-20T21:33:50.106Z,25.72
2019-02-20T21:36:24.151Z,26.52
2019-02-20T21:39:04.483Z,31.17
2019-02-20T21:41:45.004Z,27.48
2019-02-20T21:44:22.316Z,31.12
2019-02-20T21:46:59.734Z,25.37
2019-02-20T21:49:36.935Z,29.55
2019-02-20T21:52:25.277Z,23.20
2019-02-20T21:55:14.763Z,25.60
2019-02-20T21:58:04.185Z,31.62
2019-02-20T22:00:41.280Z,25.37
2019-02-20T22:03:21.512Z,27.30
2019-02-20T22:05:58.238Z,25.15
2019-02-20T22:09:02.364Z,30.62
2019-02-20T22:11:42.508Z,28.23
2019-02-20T22:14:37.974Z,25.32
2019-02-20T22:17:27.552Z,32.93
2019-02-20T22:20:15.239Z,27.93
2019-02-20T22:22:58.404Z,30.35
2019-02-20T22:25:35.430Z,34.45
2019-02-20T22:28:12.977Z,31.30
2019-02-20T22:31:05.772Z,29.52
2019-02-20T22:33:56.795Z,28.47
2019-02-20T22:37:01.700Z,27.05
2019-02-20T22:39:36.124Z,28.17
2019-02-20T22:42:13.292Z,29.48
2019-02-20T22:45:01.538Z,27.37
2019-02-20T22:47:41.734Z,21.15
2019-02-20T22:50:27.507Z,28.15
2019-02-20T22:52:58.976Z,32.10
2019-02-20T22:55:48.288Z,30.15
2019-02-20T22:58:28.819Z,31.65
2019-02-20T23:01:21.147Z,29.52
2019-02-20T23:03:52.835Z,26.73
2019-02-20T23:06:36.479Z,31.07
2019-02-20T23:09:28.853Z,29.67
2019-02-20T23:12:11.467Z,27.25
2019-02-20T23:14:59.759Z,27.65
2019-02-20T23:17:28.623Z,27.05
2019-02-20T23:19:57.179Z,30.90
2019-02-20T23:22:25.847Z,30.32
2019-02-20T23:24:54.232Z,28.52
2019-02-20T23:27:22.671Z,29.80
2019-02-20T23:29:51.035Z,29.37
2019-02-20T23:32:19.435Z,34.27
2019-02-20T23:34:47.890Z,32.48
2019-02-20T23:37:16.287Z,31.52
2019-02-20T23:39:44.674Z,34.25
2019-02-20T23:42:13.070Z,37.90
2019-02-20T23:44:41.450Z,35.17
2019-02-20T23:47:09.840Z,31.33
2019-02-20T23:49:38.294Z,37.03
2019-02-20T23:52:06.702Z,38.88
2019-02-20T23:54:35.082Z,39.13
2019-02-20T23:57:03.555Z,35.00
2019-02-20T23:59:31.952Z,43.75
